Time;durP1;ratioP1;P1;durP2;ratioP2;P2;SDS_P1;SDS_P2;PMS_P1;PMS_P2;Temp;Humidity;BMP_temperature;BMP_pressure;BME280_temperature;BME280_humidity;BME280_pressure;Samples;Min_cycle;Max_cycle;Signal;HPM_P1;HPM_P2
2024/02/02 00:00:51;;;;;;;43.33;25.17;;;;;;;4.34;nan;97324.16;2065756;28;20506;-56
2024/02/02 00:01:52;;;;;;;39.65;25.40;;;;;;;4.35;nan;97323.28;2065784;28;20042;-54
2024/02/02 00:02:53;;;;;;;35.55;22.73;;;;;;;4.28;nan;97313.91;2065234;28;20058;-56
2024/02/02 00:03:54;;;;;;;36.53;22.10;;;;;;;4.30;nan;97325.00;2065872;28;20042;-54
2024/02/02 00:04:55;;;;;;;37.83;23.30;;;;;;;4.29;nan;97325.03;2065581;28;20050;-56
2024/02/02 00:05:56;;;;;;;38.83;22.92;;;;;;;4.34;nan;97320.75;2065515;28;20046;-56
2024/02/02 00:06:57;;;;;;;35.92;21.70;;;;;;;4.32;nan;97322.44;2065341;28;20054;-56
2024/02/02 00:07:58;;;;;;;34.72;21.90;;;;;;;4.31;nan;97320.75;2056868;28;20059;-56
2024/02/02 00:09:00;;;;;;;36.45;22.70;;;;;;;4.31;nan;97318.19;2056928;28;20046;-55
2024/02/02 00:10:01;;;;;;;36.00;21.95;;;;;;;4.31;nan;97320.75;2056690;28;20439;-56
2024/02/02 00:11:02;;;;;;;35.38;21.35;;;;;;;4.33;nan;97319.00;2056638;28;20407;-56
2024/02/02 00:12:06;;;;;;;34.80;21.80;;;;;;;4.32;nan;97322.44;2056575;28;20408;-56
2024/02/02 00:13:07;;;;;;;35.40;22.33;;;;;;;4.29;nan;97320.75;2056923;28;20057;-55
2024/02/02 00:14:08;;;;;;;32.78;20.92;;;;;;;4.29;nan;97325.03;2065623;28;20049;-55
2024/02/02 00:15:09;;;;;;;34.50;19.95;;;;;;;4.28;nan;97321.59;2065656;28;20045;-55
2024/02/02 00:16:11;;;;;;;31.92;20.00;;;;;;;4.26;nan;97317.31;2065135;28;20058;-56
2024/02/02 00:17:12;;;;;;;34.38;21.85;;;;;;;4.29;nan;97319.88;2065704;28;20053;-56
2024/02/02 00:18:13;;;;;;;32.05;21.30;;;;;;;4.29;nan;97319.88;2065591;28;20046;-56
2024/02/02 00:19:15;;;;;;;31.52;20.85;;;;;;;4.29;nan;97325.03;2065739;28;20142;-56
2024/02/02 00:20:17;;;;;;;31.98;20.95;;;;;;;4.30;nan;97319.00;2065667;28;20034;-56
2024/02/02 00:21:18;;;;;;;30.90;19.65;;;;;;;4.29;nan;97314.75;2065508;28;20049;-56
2024/02/02 00:22:20;;;;;;;30.67;20.25;;;;;;;4.26;nan;97325.03;2065302;28;20479;-56
2024/02/02 00:23:23;;;;;;;30.70;19.73;;;;;;;4.25;nan;97320.72;2065045;28;20156;-56
2024/02/02 00:24:24;;;;;;;31.40;20.15;;;;;;;4.24;nan;97319.88;2065461;28;20046;-56
2024/02/02 00:25:25;;;;;;;29.00;19.85;;;;;;;4.25;nan;97324.19;2065707;28;20526;-56
2024/02/02 00:26:27;;;;;;;28.40;19.33;;;;;;;4.24;nan;97326.75;2065144;28;20042;-56
2024/02/02 00:27:28;;;;;;;31.10;19.67;;;;;;;4.24;nan;97329.31;2065654;28;20038;-55
2024/02/02 00:28:29;;;;;;;33.65;19.38;;;;;;;4.23;nan;97327.63;2065557;28;20050;-56
2024/02/02 00:29:30;;;;;;;29.95;19.35;;;;;;;4.22;nan;97319.03;2065390;28;20403;-56
2024/02/02 00:30:34;;;;;;;32.17;19.23;;;;;;;4.20;nan;97324.19;2065621;28;20042;-56
2024/02/02 00:31:36;;;;;;;30.55;19.45;;;;;;;4.20;nan;97326.75;2065604;28;20046;-56
2024/02/02 00:32:39;;;;;;;30.40;20.40;;;;;;;4.21;nan;97332.75;2066609;28;20045;-56
2024/02/02 00:33:40;;;;;;;31.05;19.35;;;;;;;4.19;nan;97330.16;2066511;28;20053;-56
2024/02/02 00:34:42;;;;;;;29.70;19.55;;;;;;;4.17;nan;97328.44;2066624;28;20042;-56
2024/02/02 00:35:43;;;;;;;30.35;19.40;;;;;;;4.18;nan;97322.47;2066027;28;20379;-56
2024/02/02 00:36:44;;;;;;;30.20;19.67;;;;;;;4.15;nan;97328.47;2066007;28;20046;-56
2024/02/02 00:37:46;;;;;;;31.17;20.20;;;;;;;4.17;nan;97329.34;2065402;28;20054;-55
2024/02/02 00:38:47;;;;;;;31.23;20.08;;;;;;;4.14;nan;97324.19;2065669;28;20042;-55
2024/02/02 00:39:49;;;;;;;27.88;19.20;;;;;;;4.14;nan;97321.63;2065540;28;20490;-56
2024/02/02 00:40:50;;;;;;;29.02;20.27;;;;;;;4.17;nan;97320.75;2065644;28;20069;-55
2024/02/02 00:41:51;;;;;;;29.63;19.35;;;;;;;4.11;nan;97319.03;2065603;28;20053;-56
2024/02/02 00:42:52;;;;;;;34.05;18.70;;;;;;;4.11;nan;97321.59;2065693;28;20402;-55
2024/02/02 00:43:53;;;;;;;27.40;18.88;;;;;;;4.10;nan;97327.63;2065292;28;20482;-56
2024/02/02 00:44:54;;;;;;;28.80;19.10;;;;;;;4.11;nan;97325.91;2065504;28;20046;-56
2024/02/02 00:45:55;;;;;;;30.17;19.48;;;;;;;4.10;nan;97319.06;2065480;28;20069;-55
2024/02/02 00:46:56;;;;;;;32.00;19.95;;;;;;;4.09;nan;97323.34;2065527;28;20041;-55
2024/02/02 00:47:59;;;;;;;26.60;18.45;;;;;;;4.08;nan;97318.19;2056713;28;20050;-55
2024/02/02 00:49:01;;;;;;;28.48;19.20;;;;;;;4.05;nan;97313.06;2056947;28;20422;-56
2024/02/02 00:50:04;;;;;;;30.35;18.67;;;;;;;4.05;nan;97319.03;2065502;28;20050;-56
2024/02/02 00:51:05;;;;;;;30.05;18.42;;;;;;;4.01;nan;97317.34;2064891;28;20053;-55
2024/02/02 00:52:06;;;;;;;28.75;18.52;;;;;;;3.98;nan;97325.91;2064185;28;20054;-54
2024/02/02 00:53:07;;;;;;;29.55;18.83;;;;;;;3.95;nan;97318.19;2065543;28;20454;-55
2024/02/02 00:54:08;;;;;;;29.08;19.10;;;;;;;3.93;nan;97321.63;2065136;28;20054;-56
2024/02/02 00:55:09;;;;;;;29.45;19.20;;;;;;;3.92;nan;97323.31;2056651;28;20047;-56
2024/02/02 00:56:10;;;;;;;27.80;18.30;;;;;;;3.88;nan;97324.19;2056641;28;20050;-56
2024/02/02 00:57:12;;;;;;;25.80;17.83;;;;;;;3.85;nan;97323.31;2056857;28;20050;-56
2024/02/02 00:58:13;;;;;;;31.95;18.75;;;;;;;3.85;nan;97325.88;2065494;28;20075;-56
2024/02/02 00:59:14;;;;;;;28.08;18.65;;;;;;;3.84;nan;97321.63;2064963;28;20070;-56
2024/02/02 01:00:15;;;;;;;32.78;18.35;;;;;;;3.86;nan;97327.63;2065601;28;20482;-55
2024/02/02 01:01:17;;;;;;;28.85;18.70;;;;;;;3.85;nan;97333.59;2065236;28;20042;-56
2024/02/02 01:02:18;;;;;;;27.00;17.02;;;;;;;3.84;nan;97322.47;2065584;28;20045;-56
2024/02/02 01:03:19;;;;;;;29.65;17.65;;;;;;;3.82;nan;97325.88;2065458;28;20034;-56
2024/02/02 01:04:20;;;;;;;28.38;18.42;;;;;;;3.84;nan;97332.75;2065490;28;20026;-56
2024/02/02 01:05:21;;;;;;;28.42;18.58;;;;;;;3.84;nan;97324.19;2065633;28;20038;-55
2024/02/02 01:06:22;;;;;;;27.90;18.13;;;;;;;3.86;nan;97323.34;2065457;28;20042;-55
2024/02/02 01:07:23;;;;;;;29.80;18.90;;;;;;;3.87;nan;97330.16;2065470;28;20058;-56
2024/02/02 01:08:24;;;;;;;31.20;19.77;;;;;;;3.85;nan;97331.91;2065151;28;20042;-56
2024/02/02 01:09:26;;;;;;;29.30;18.67;;;;;;;3.85;nan;97331.03;2065813;28;20050;-55
2024/02/02 01:10:27;;;;;;;30.48;19.48;;;;;;;3.87;nan;97326.75;2065475;28;20061;-56
2024/02/02 01:11:28;;;;;;;27.58;16.45;;;;;;;3.85;nan;97323.31;2064679;28;20050;-55
2024/02/02 01:12:29;;;;;;;27.83;16.65;;;;;;;3.82;nan;97323.31;2065200;28;20057;-55
2024/02/02 01:13:30;;;;;;;26.88;16.27;;;;;;;3.80;nan;97340.47;2064902;28;20046;-56
2024/02/02 01:14:31;;;;;;;25.55;15.60;;;;;;;3.78;nan;97332.75;2065405;28;20045;-55
2024/02/02 01:15:32;;;;;;;25.00;15.63;;;;;;;3.77;nan;97331.06;2065408;28;20042;-56
2024/02/02 01:16:34;;;;;;;25.23;13.70;;;;;;;3.69;nan;97336.19;2065488;28;20046;-56
2024/02/02 01:17:35;;;;;;;20.65;13.23;;;;;;;3.69;nan;97343.03;2065482;28;20041;-56
2024/02/02 01:18:36;;;;;;;25.42;11.98;;;;;;;3.69;nan;97337.91;2065564;28;20387;-54
2024/02/02 01:19:37;;;;;;;20.38;13.77;;;;;;;3.68;nan;97343.88;2065533;28;20045;-56
2024/02/02 01:20:38;;;;;;;18.92;11.55;;;;;;;3.67;nan;97335.31;2065686;28;20057;-55
2024/02/02 01:21:39;;;;;;;19.77;12.13;;;;;;;3.67;nan;97337.03;2067065;28;20470;-55
2024/02/02 01:22:44;;;;;;;23.20;11.30;;;;;;;3.65;nan;97337.00;2067000;28;20049;-55
2024/02/02 01:23:45;;;;;;;21.70;11.73;;;;;;;3.62;nan;97339.59;2067000;28;20046;-55
2024/02/02 01:24:46;;;;;;;17.83;11.50;;;;;;;3.60;nan;97337.88;2058369;28;20046;-55
2024/02/02 01:25:47;;;;;;;20.45;11.32;;;;;;;3.57;nan;97333.56;2057657;28;20502;-55
2024/02/02 01:26:48;;;;;;;24.55;10.93;;;;;;;3.54;nan;97328.44;2067039;28;20038;-56
2024/02/02 01:27:49;;;;;;;21.17;12.43;;;;;;;3.51;nan;97328.44;2066687;28;20061;-55
2024/02/02 01:28:50;;;;;;;21.52;11.63;;;;;;;3.52;nan;97332.72;2066773;28;20506;-55
2024/02/02 01:29:51;;;;;;;24.95;11.60;;;;;;;3.46;nan;97325.84;2066977;28;20045;-56
2024/02/02 01:30:52;;;;;;;21.00;11.65;;;;;;;3.43;nan;97328.41;2066946;28;20042;-55
2024/02/02 01:31:54;;;;;;;23.67;11.52;;;;;;;3.42;nan;97331.84;2066678;28;20530;-55
2024/02/02 01:32:57;;;;;;;22.63;12.27;;;;;;;3.41;nan;97332.69;2067085;28;20026;-55
2024/02/02 01:33:59;;;;;;;22.05;11.75;;;;;;;3.39;nan;97329.25;2058271;28;20503;-55
2024/02/02 01:35:00;;;;;;;21.63;12.27;;;;;;;3.36;nan;97330.97;2058301;28;20043;-55
2024/02/02 01:36:01;;;;;;;24.10;12.50;;;;;;;3.31;nan;97328.38;2066960;28;20343;-55
2024/02/02 01:37:02;;;;;;;20.65;12.43;;;;;;;3.30;nan;97324.09;2066842;28;20030;-56
2024/02/02 01:38:04;;;;;;;18.20;11.18;;;;;;;3.25;nan;97313.81;2066705;28;20054;-56
2024/02/02 01:39:10;;;;;;;23.48;11.30;;;;;;;3.25;nan;97318.09;2066861;28;20042;-55
2024/02/02 01:40:14;;;;;;;19.52;11.23;;;;;;;3.23;nan;97315.50;2066884;28;20047;-55
2024/02/02 01:41:19;;;;;;;24.55;12.32;;;;;;;3.19;nan;97312.97;2066954;28;20050;-55
2024/02/02 01:42:20;;;;;;;23.30;12.45;;;;;;;3.17;nan;97310.38;2066701;28;20497;-55
2024/02/02 01:43:23;;;;;;;23.45;12.65;;;;;;;3.13;nan;97306.09;2066809;28;20139;-55
2024/02/02 01:44:24;;;;;;;21.90;12.45;;;;;;;3.12;nan;97301.78;2066777;28;20046;-55
2024/02/02 01:45:25;;;;;;;20.50;11.73;;;;;;;3.09;nan;97299.22;2066433;28;20050;-55
2024/02/02 01:46:27;;;;;;;23.25;12.82;;;;;;;3.08;nan;97295.81;2067095;28;20030;-55
2024/02/02 01:47:28;;;;;;;21.33;13.27;;;;;;;3.06;nan;97300.06;2066794;28;20411;-55
2024/02/02 01:48:29;;;;;;;27.02;13.95;;;;;;;3.02;nan;97292.34;2066405;28;20046;-56
2024/02/02 01:49:30;;;;;;;23.05;12.95;;;;;;;3.01;nan;97295.78;2066931;28;20038;-55
2024/02/02 01:50:31;;;;;;;22.65;13.23;;;;;;;2.97;nan;97299.19;2066793;28;20475;-55
2024/02/02 01:51:32;;;;;;;22.80;12.88;;;;;;;2.94;nan;97296.59;2066276;28;20050;-55
2024/02/02 01:52:33;;;;;;;25.83;13.18;;;;;;;2.92;nan;97299.19;2065306;28;20042;-56
2024/02/02 01:53:34;;;;;;;27.92;13.85;;;;;;;2.86;nan;97305.16;2049363;29;20499;-55
2024/02/02 01:54:35;;;;;;;26.48;13.68;;;;;;;2.83;nan;97302.56;2042230;28;20050;-55
2024/02/02 01:55:36;;;;;;;22.83;14.18;;;;;;;2.80;nan;97299.13;2058403;28;20057;-55
2024/02/02 01:56:38;;;;;;;24.42;13.32;;;;;;;2.74;nan;97307.66;2066907;28;20402;-55
2024/02/02 01:57:39;;;;;;;25.52;14.63;;;;;;;2.69;nan;97304.19;2058159;28;20043;-56
2024/02/02 01:58:40;;;;;;;23.35;13.52;;;;;;;2.64;nan;97308.44;2057706;28;20050;-55
2024/02/02 01:59:41;;;;;;;24.50;14.18;;;;;;;2.59;nan;97310.13;2058478;28;20047;-55
2024/02/02 02:00:42;;;;;;;26.95;14.80;;;;;;;2.56;nan;97305.00;2058081;28;20039;-56
2024/02/02 02:01:43;;;;;;;25.25;14.57;;;;;;;2.51;nan;97309.22;2066074;28;20042;-55
2024/02/02 02:02:44;;;;;;;26.58;15.60;;;;;;;2.43;nan;97312.63;2066813;28;20054;-55
2024/02/02 02:03:45;;;;;;;29.77;16.65;;;;;;;2.39;nan;97310.03;2066593;28;20403;-55
2024/02/02 02:04:46;;;;;;;24.73;15.02;;;;;;;2.32;nan;97311.69;2066730;28;20039;-55
2024/02/02 02:05:47;;;;;;;33.28;16.27;;;;;;;2.29;nan;97304.00;2066246;28;20054;-55
2024/02/02 02:06:49;;;;;;;29.42;16.52;;;;;;;2.27;nan;97305.69;2066739;28;20407;-55
2024/02/02 02:07:50;;;;;;;31.70;17.02;;;;;;;2.26;nan;97308.25;2057717;28;20047;-55
2024/02/02 02:08:51;;;;;;;29.55;16.27;;;;;;;2.25;nan;97304.84;2057623;28;20059;-55
2024/02/02 02:09:52;;;;;;;30.17;16.42;;;;;;;2.29;nan;97314.25;2066763;28;20053;-55
2024/02/02 02:10:53;;;;;;;35.28;17.48;;;;;;;2.35;nan;97314.31;2066628;28;20490;-55
2024/02/02 02:11:54;;;;;;;30.17;16.70;;;;;;;2.40;nan;97309.19;2058023;28;20043;-56
2024/02/02 02:12:56;;;;;;;33.78;18.27;;;;;;;2.43;nan;97309.19;2057890;28;20059;-55
2024/02/02 02:13:57;;;;;;;32.80;18.65;;;;;;;2.45;nan;97307.50;2057939;28;20054;-56
2024/02/02 02:14:58;;;;;;;32.05;17.85;;;;;;;2.49;nan;97300.69;2050059;28;20047;-56
2024/02/02 02:15:59;;;;;;;32.65;18.13;;;;;;;2.50;nan;97297.28;2057378;28;20046;-55
2024/02/02 02:17:00;;;;;;;29.08;17.80;;;;;;;2.54;nan;97301.56;2058520;28;20054;-56
2024/02/02 02:18:02;;;;;;;33.17;17.25;;;;;;;2.55;nan;97299.00;2058399;28;20503;-55
2024/02/02 02:19:03;;;;;;;36.50;18.67;;;;;;;2.55;nan;97295.59;2067247;28;20046;-56
2024/02/02 02:20:10;;;;;;;42.63;21.13;;;;;;;2.54;nan;97302.44;2066889;28;20495;-55
2024/02/02 02:21:41;;;;;;;40.85;19.67;;;;;;;2.55;nan;97293.88;2050061;29;20534;-55
2024/02/02 02:22:42;;;;;;;37.15;20.10;;;;;;;2.58;nan;97295.59;2046376;28;20395;-55
2024/02/02 02:23:43;;;;;;;37.03;20.35;;;;;;;2.58;nan;97285.34;2066557;28;20054;-56
2024/02/02 02:24:44;;;;;;;31.77;19.40;;;;;;;2.57;nan;97289.63;2057680;28;20055;-56
2024/02/02 02:25:45;;;;;;;31.85;19.80;;;;;;;2.58;nan;97280.22;2058027;28;20446;-55
2024/02/02 02:26:47;;;;;;;37.65;22.10;;;;;;;2.61;nan;97280.22;2066460;28;20053;-55
2024/02/02 02:27:48;;;;;;;33.95;21.35;;;;;;;2.60;nan;97279.38;2049302;29;20530;-56
2024/02/02 02:28:49;;;;;;;40.58;21.70;;;;;;;2.64;nan;97269.97;2049937;28;20047;-55
2024/02/02 02:29:50;;;;;;;39.97;22.27;;;;;;;2.64;nan;97267.41;2066557;28;20038;-55
2024/02/02 02:30:51;;;;;;;41.92;24.00;;;;;;;2.60;nan;97269.13;2066739;28;20046;-56
2024/02/02 02:31:55;;;;;;;42.40;23.77;;;;;;;2.57;nan;97263.13;2066157;28;20402;-56
2024/02/02 02:32:57;;;;;;;42.30;23.42;;;;;;;2.59;nan;97256.28;2066138;28;20501;-55
2024/02/02 02:33:58;;;;;;;36.63;20.63;;;;;;;2.54;nan;97260.53;2066477;28;20034;-55
2024/02/02 02:34:59;;;;;;;34.17;19.25;;;;;;;2.52;nan;97255.41;2066592;28;20081;-56
2024/02/02 02:36:00;;;;;;;33.58;18.88;;;;;;;2.53;nan;97266.50;2057559;28;20058;-58
2024/02/02 02:37:01;;;;;;;43.97;22.33;;;;;;;2.50;nan;97259.66;2059937;28;20034;-56
2024/02/02 02:38:03;;;;;;;37.35;21.67;;;;;;;2.49;nan;97259.69;2067528;28;20050;-62
2024/02/02 02:39:05;;;;;;;37.08;19.08;;;;;;;2.52;nan;97260.53;2066445;28;20379;-59
2024/02/02 02:40:08;;;;;;;37.60;20.92;;;;;;;2.53;nan;97258.81;2067647;28;20046;-61
2024/02/02 02:41:10;;;;;;;36.38;20.40;;;;;;;2.53;nan;97259.69;2067565;28;20046;-59
2024/02/02 02:42:11;;;;;;;37.65;20.13;;;;;;;2.52;nan;97254.56;2066326;28;20050;-55
2024/02/02 02:43:12;;;;;;;35.90;21.23;;;;;;;2.51;nan;97250.25;2067177;28;20042;-56
2024/02/02 02:44:13;;;;;;;39.88;21.83;;;;;;;2.53;nan;97251.13;2067441;28;20053;-54
2024/02/02 02:45:14;;;;;;;42.10;21.08;;;;;;;2.52;nan;97252.84;2066780;28;20406;-59
2024/02/02 02:46:15;;;;;;;42.05;23.45;;;;;;;2.52;nan;97249.44;2066748;28;20057;-56
2024/02/02 02:47:16;;;;;;;38.25;20.42;;;;;;;2.56;nan;97252.00;2066955;28;20062;-56
2024/02/02 02:48:17;;;;;;;45.03;24.30;;;;;;;2.56;nan;97251.13;2067385;28;20046;-59
2024/02/02 02:49:19;;;;;;;47.85;26.15;;;;;;;2.58;nan;97249.44;2066832;28;20049;-56
2024/02/02 02:50:20;;;;;;;45.55;23.33;;;;;;;2.58;nan;97246.88;2066858;28;20089;-55
2024/02/02 02:51:21;;;;;;;49.95;24.15;;;;;;;2.61;nan;97252.00;2067185;28;20049;-56
2024/02/02 02:52:22;;;;;;;48.33;25.30;;;;;;;2.60;nan;97242.63;2065835;28;20052;-55
2024/02/02 02:53:23;;;;;;;54.72;28.65;;;;;;;2.60;nan;97247.75;2067556;28;20035;-55
2024/02/02 02:54:24;;;;;;;58.97;29.52;;;;;;;2.61;nan;97252.88;2066826;28;20041;-55
2024/02/02 02:55:25;;;;;;;54.47;27.42;;;;;;;2.61;nan;97255.44;2066861;28;20046;-57
2024/02/02 02:56:26;;;;;;;62.58;32.95;;;;;;;2.64;nan;97249.47;2067493;28;20422;-70
2024/02/02 02:57:27;;;;;;;61.10;31.88;;;;;;;2.66;nan;97252.91;2067672;28;20034;-61
2024/02/02 02:58:28;;;;;;;57.20;28.60;;;;;;;2.67;nan;97256.31;2067695;28;20038;-56
2024/02/02 02:59:32;;;;;;;64.00;33.90;;;;;;;2.69;nan;97257.19;2066534;28;20073;-62
2024/02/02 03:00:33;;;;;;;65.40;34.35;;;;;;;2.68;nan;97251.19;2067311;28;20048;-56
2024/02/02 03:01:34;;;;;;;62.10;32.92;;;;;;;2.67;nan;97249.47;2067111;28;20493;-56
2024/02/02 03:02:35;;;;;;;71.90;36.03;;;;;;;2.69;nan;97250.34;2067009;28;20054;-56
2024/02/02 03:03:36;;;;;;;67.82;33.88;;;;;;;2.68;nan;97256.34;2066373;28;20046;-61
2024/02/02 03:04:37;;;;;;;67.25;35.47;;;;;;;2.70;nan;97262.34;2067105;28;20414;-61
2024/02/02 03:05:39;;;;;;;69.47;35.00;;;;;;;2.73;nan;97264.91;2066499;28;20497;-57
2024/02/02 03:06:40;;;;;;;67.72;35.65;;;;;;;2.73;nan;97262.34;2066867;28;20046;-61
2024/02/02 03:07:41;;;;;;;68.65;34.60;;;;;;;2.74;nan;97261.47;2066616;28;20042;-58
2024/02/02 03:08:42;;;;;;;65.88;32.72;;;;;;;2.73;nan;97267.47;2067304;28;20038;-58
2024/02/02 03:09:43;;;;;;;75.38;37.75;;;;;;;2.77;nan;97279.44;2067267;28;20371;-59
2024/02/02 03:10:44;;;;;;;68.72;34.70;;;;;;;2.75;nan;97270.88;2066676;28;20042;-60
2024/02/02 03:11:45;;;;;;;69.32;35.35;;;;;;;2.76;nan;97275.16;2066336;28;20053;-60
2024/02/02 03:12:46;;;;;;;72.20;36.00;;;;;;;2.76;nan;97282.88;2065489;28;20057;-56
2024/02/02 03:13:48;;;;;;;67.45;34.30;;;;;;;2.73;nan;97280.28;2066641;28;20038;-56
2024/02/02 03:14:49;;;;;;;74.38;36.75;;;;;;;2.77;nan;97273.47;2067058;28;20038;-62
2024/02/02 03:15:50;;;;;;;67.78;34.22;;;;;;;2.75;nan;97272.59;2067256;28;20038;-60
2024/02/02 03:16:51;;;;;;;72.18;35.20;;;;;;;2.74;nan;97273.44;2067225;28;20049;-57
2024/02/02 03:17:53;;;;;;;70.70;34.65;;;;;;;2.75;nan;97272.59;2067083;28;20046;-57
2024/02/02 03:18:54;;;;;;;76.85;36.45;;;;;;;2.74;nan;97274.31;2066896;28;20046;-59
2024/02/02 03:19:55;;;;;;;77.20;38.20;;;;;;;2.74;nan;97271.75;2067035;28;20046;-57
2024/02/02 03:20:56;;;;;;;68.97;34.85;;;;;;;2.72;nan;97268.28;2066983;28;20510;-58
2024/02/02 03:21:57;;;;;;;72.45;35.45;;;;;;;2.73;nan;97270.03;2057866;28;20410;-56
2024/02/02 03:22:59;;;;;;;77.63;37.35;;;;;;;2.73;nan;97272.59;2058101;28;20050;-57
2024/02/02 03:24:01;;;;;;;73.88;36.97;;;;;;;2.73;nan;97272.59;2058388;28;20125;-60
2024/02/02 03:25:02;;;;;;;77.38;37.00;;;;;;;2.74;nan;97270.88;2058410;28;20061;-60
2024/02/02 03:26:03;;;;;;;75.53;37.83;;;;;;;2.75;nan;97273.44;2066949;28;20065;-59
2024/02/02 03:27:04;;;;;;;73.22;33.90;;;;;;;2.74;nan;97269.16;2066986;28;20050;-56
2024/02/02 03:28:05;;;;;;;72.97;37.05;;;;;;;2.76;nan;97264.06;2066331;28;20511;-60
2024/02/02 03:29:06;;;;;;;72.68;35.33;;;;;;;2.75;nan;97264.88;2066996;28;20053;-61
2024/02/02 03:30:09;;;;;;;76.60;35.88;;;;;;;2.75;nan;97270.03;2066270;28;20061;-55
2024/02/02 03:31:10;;;;;;;69.93;34.95;;;;;;;2.76;nan;97269.19;2066243;28;20038;-55
2024/02/02 03:32:11;;;;;;;70.32;34.38;;;;;;;2.76;nan;97267.47;2066066;28;20050;-55
2024/02/02 03:33:12;;;;;;;73.43;34.75;;;;;;;2.76;nan;97262.34;2065989;28;20042;-55
2024/02/02 03:34:13;;;;;;;66.05;31.65;;;;;;;2.77;nan;97271.75;2065985;28;20398;-56
2024/02/02 03:35:15;;;;;;;71.45;35.58;;;;;;;2.76;nan;97276.88;2065965;28;20047;-55
2024/02/02 03:36:16;;;;;;;74.68;35.28;;;;;;;2.75;nan;97270.03;2065959;28;20042;-55
2024/02/02 03:37:18;;;;;;;72.82;35.17;;;;;;;2.74;nan;97266.59;2066163;28;20380;-55
2024/02/02 03:38:19;;;;;;;74.70;36.03;;;;;;;2.75;nan;97268.31;2056871;28;20046;-55
2024/02/02 03:39:20;;;;;;;76.65;37.95;;;;;;;2.74;nan;97265.75;2056834;28;20047;-55
2024/02/02 03:40:21;;;;;;;82.03;37.58;;;;;;;2.73;nan;97259.78;2066142;28;20042;-56
2024/02/02 03:41:22;;;;;;;79.03;39.63;;;;;;;2.75;nan;97270.88;2065920;28;20030;-55
2024/02/02 03:42:23;;;;;;;85.90;39.63;;;;;;;2.74;nan;97265.75;2065585;28;20046;-55
2024/02/02 03:43:24;;;;;;;79.28;34.80;;;;;;;2.74;nan;97263.19;2065614;28;20475;-55
2024/02/02 03:44:26;;;;;;;81.93;38.60;;;;;;;2.75;nan;97275.16;2065841;28;20039;-55
2024/02/02 03:45:27;;;;;;;79.25;37.50;;;;;;;2.75;nan;97264.88;2065704;28;20050;-56
2024/02/02 03:46:28;;;;;;;78.53;37.38;;;;;;;2.75;nan;97265.75;2065122;28;20442;-55
2024/02/02 03:47:29;;;;;;;81.18;39.00;;;;;;;2.76;nan;97274.31;2065997;28;20040;-56
2024/02/02 03:48:30;;;;;;;76.90;38.22;;;;;;;2.78;nan;97273.47;2057561;28;20043;-56
2024/02/02 03:49:34;;;;;;;70.45;35.67;;;;;;;2.79;nan;97274.31;2057363;28;20034;-56
2024/02/02 03:50:35;;;;;;;77.25;37.05;;;;;;;2.78;nan;97273.47;2065602;28;20478;-56
2024/02/02 03:51:36;;;;;;;77.50;36.63;;;;;;;2.81;nan;97281.19;2065900;28;20041;-55
2024/02/02 03:52:37;;;;;;;70.03;35.03;;;;;;;2.82;nan;97282.88;2065222;28;20050;-55
2024/02/02 03:53:39;;;;;;;75.47;34.67;;;;;;;2.82;nan;97288.00;2066389;28;20042;-56
2024/02/02 03:54:40;;;;;;;75.95;37.63;;;;;;;2.86;nan;97294.00;2066134;28;20119;-55
2024/02/02 03:55:41;;;;;;;69.25;34.60;;;;;;;2.87;nan;97296.59;2065963;28;20541;-56
2024/02/02 03:56:43;;;;;;;73.45;35.60;;;;;;;2.88;nan;97293.16;2065341;28;20046;-56
2024/02/02 03:57:44;;;;;;;81.90;39.22;;;;;;;2.90;nan;97292.31;2066075;28;20042;-56
2024/02/02 03:58:45;;;;;;;76.72;38.47;;;;;;;2.90;nan;97290.63;2065938;28;20061;-57
2024/02/02 03:59:46;;;;;;;75.65;36.67;;;;;;;2.91;nan;97289.75;2066291;28;20509;-56
2024/02/02 04:00:47;;;;;;;73.57;35.92;;;;;;;2.90;nan;97284.63;2066136;28;20053;-56
2024/02/02 04:01:48;;;;;;;79.00;38.78;;;;;;;2.91;nan;97291.47;2065852;28;20042;-55
2024/02/02 04:02:50;;;;;;;76.43;36.90;;;;;;;2.91;nan;97287.19;2066061;28;20476;-55
2024/02/02 04:03:51;;;;;;;74.13;37.60;;;;;;;2.90;nan;97276.94;2065885;28;20382;-55
2024/02/02 04:04:52;;;;;;;74.57;36.55;;;;;;;2.89;nan;97278.66;2065686;28;20061;-55
2024/02/02 04:05:53;;;;;;;75.15;36.60;;;;;;;2.85;nan;97277.75;2065252;28;20097;-55
2024/02/02 04:06:54;;;;;;;72.68;36.17;;;;;;;2.83;nan;97271.78;2065966;28;20399;-56
2024/02/02 04:07:55;;;;;;;66.72;32.83;;;;;;;2.83;nan;97270.91;2065415;28;20050;-56
2024/02/02 04:08:56;;;;;;;71.88;35.58;;;;;;;2.83;nan;97270.91;2065650;28;20046;-56
2024/02/02 04:09:57;;;;;;;79.03;37.47;;;;;;;2.83;nan;97270.91;2065778;28;20031;-55
2024/02/02 04:10:59;;;;;;;75.75;36.63;;;;;;;2.81;nan;97268.34;2065452;28;20057;-55
2024/02/02 04:12:00;;;;;;;72.60;35.58;;;;;;;2.80;nan;97271.75;2065607;28;20046;-55
2024/02/02 04:13:02;;;;;;;66.43;33.30;;;;;;;2.79;nan;97270.03;2065534;28;20083;-55
2024/02/02 04:14:03;;;;;;;69.00;34.20;;;;;;;2.78;nan;97265.78;2065139;28;20050;-56
2024/02/02 04:15:05;;;;;;;74.25;34.70;;;;;;;2.78;nan;97273.47;2065173;28;20046;-55
2024/02/02 04:16:06;;;;;;;70.00;32.40;;;;;;;2.79;nan;97274.31;2065672;28;20042;-55
2024/02/02 04:17:07;;;;;;;73.03;32.90;;;;;;;2.77;nan;97268.31;2065886;28;20054;-56
2024/02/02 04:18:08;;;;;;;68.78;33.53;;;;;;;2.78;nan;97263.22;2065615;28;20080;-55
2024/02/02 04:19:14;;;;;;;65.30;31.83;;;;;;;2.78;nan;97264.91;2065689;28;20486;-55
2024/02/02 04:20:16;;;;;;;75.90;33.97;;;;;;;2.78;nan;97263.22;2065175;28;20065;-55
2024/02/02 04:21:17;;;;;;;65.57;32.30;;;;;;;2.76;nan;97264.91;2065853;28;20030;-55
2024/02/02 04:22:18;;;;;;;66.88;32.70;;;;;;;2.76;nan;97262.34;2065647;28;20042;-56
2024/02/02 04:23:19;;;;;;;67.60;30.60;;;;;;;2.76;nan;97262.34;2065655;28;20521;-55
2024/02/02 04:24:20;;;;;;;66.82;32.90;;;;;;;2.76;nan;97266.63;2064835;28;20049;-55
2024/02/02 04:25:21;;;;;;;66.03;32.05;;;;;;;2.76;nan;97269.19;2065033;28;20509;-55
2024/02/02 04:26:22;;;;;;;66.78;32.28;;;;;;;2.76;nan;97270.03;2065147;28;20045;-56
2024/02/02 04:27:23;;;;;;;66.75;32.45;;;;;;;2.76;nan;97271.75;2065517;28;20046;-56
2024/02/02 04:28:25;;;;;;;62.70;30.55;;;;;;;2.76;nan;97280.31;2065274;28;20474;-55
2024/02/02 04:29:26;;;;;;;65.88;31.45;;;;;;;2.76;nan;97275.16;2065607;28;20038;-55
2024/02/02 04:30:30;;;;;;;63.55;30.83;;;;;;;2.75;nan;97277.72;2065687;28;20041;-55
2024/02/02 04:31:31;;;;;;;68.03;32.20;;;;;;;2.74;nan;97279.44;2065611;28;20042;-55
2024/02/02 04:32:32;;;;;;;69.70;34.42;;;;;;;2.74;nan;97281.16;2065646;28;20034;-55
2024/02/02 04:33:33;;;;;;;67.93;30.70;;;;;;;2.73;nan;97280.28;2065434;28;20045;-55
2024/02/02 04:34:34;;;;;;;69.00;33.05;;;;;;;2.74;nan;97281.16;2065607;28;20045;-55
2024/02/02 04:35:35;;;;;;;69.15;32.42;;;;;;;2.74;nan;97274.31;2065547;28;20049;-56
2024/02/02 04:36:36;;;;;;;66.63;32.95;;;;;;;2.73;nan;97282.84;2065313;28;20050;-55
2024/02/02 04:37:41;;;;;;;70.47;34.80;;;;;;;2.74;nan;97282.00;2065541;28;20042;-55
2024/02/02 04:38:42;;;;;;;72.93;35.92;;;;;;;2.75;nan;97285.41;2065667;28;20073;-55
2024/02/02 04:39:43;;;;;;;66.15;32.85;;;;;;;2.75;nan;97283.69;2057011;28;20376;-56
2024/02/02 04:40:45;;;;;;;69.15;33.17;;;;;;;2.76;nan;97282.88;2056967;28;20042;-56
2024/02/02 04:41:46;;;;;;;69.50;32.50;;;;;;;2.76;nan;97282.03;2065546;28;20172;-56
2024/02/02 04:42:47;;;;;;;64.70;31.70;;;;;;;2.78;nan;97288.88;2065247;28;20058;-55
2024/02/02 04:43:48;;;;;;;67.90;33.05;;;;;;;2.78;nan;97290.56;2065635;28;20042;-55
2024/02/02 04:44:49;;;;;;;61.08;30.33;;;;;;;2.77;nan;97286.28;2056854;28;20043;-55
2024/02/02 04:45:51;;;;;;;70.18;34.45;;;;;;;2.81;nan;97295.72;2056998;28;20471;-55
2024/02/02 04:46:52;;;;;;;63.78;31.20;;;;;;;2.80;nan;97294.00;2064776;28;20054;-55
2024/02/02 04:47:53;;;;;;;64.43;29.35;;;;;;;2.78;nan;97298.25;2056443;28;20051;-55
2024/02/02 04:48:54;;;;;;;64.07;31.88;;;;;;;2.80;nan;97302.53;2056639;28;20403;-55
2024/02/02 04:49:55;;;;;;;67.30;34.00;;;;;;;2.78;nan;97306.81;2065613;28;20053;-55
2024/02/02 04:50:56;;;;;;;64.13;33.13;;;;;;;2.81;nan;97303.41;2064990;28;20065;-56
2024/02/02 04:51:57;;;;;;;63.97;31.25;;;;;;;2.80;nan;97304.25;2065327;28;20410;-56
2024/02/02 04:52:58;;;;;;;58.28;29.08;;;;;;;2.81;nan;97306.84;2055760;28;20047;-55